createdAt,value
2024-01-01T00:02:28.480Z,22.20
2024-01-01T00:12:36.727Z,22.21
2024-01-01T00:22:42.168Z,22.20
2024-01-01T00:32:48.417Z,22.22
2024-01-01T00:42:53.818Z,22.22
2024-01-01T00:52:59.022Z,22.21
2024-01-01T01:03:04.132Z,22.19
2024-01-01T01:13:09.485Z,22.21
2024-01-01T01:23:14.641Z,22.18
2024-01-01T01:33:20.261Z,22.19
2024-01-01T01:43:25.465Z,22.17
2024-01-01T01:53:30.948Z,22.19
2024-01-01T02:03:36.327Z,22.17
2024-01-01T02:13:41.764Z,22.18
2024-01-01T02:23:46.946Z,22.18
2024-01-01T02:33:51.822Z,22.17
2024-01-01T02:45:16.645Z,22.17
2024-01-01T02:55:21.593Z,22.23
2024-01-01T03:05:27.068Z,22.23
2024-01-01T03:15:32.556Z,22.23
2024-01-01T03:25:37.804Z,22.22
2024-01-01T03:37:02.473Z,22.20
2024-01-01T03:47:06.677Z,22.20
2024-01-01T03:57:12.066Z,22.18
2024-01-01T04:07:17.481Z,22.17
2024-01-01T04:17:22.953Z,22.16
2024-01-01T04:27:28.179Z,22.17
2024-01-01T04:37:33.036Z,22.17
2024-01-01T04:47:38.491Z,22.17
2024-01-01T04:57:43.738Z,22.16
2024-01-01T05:07:50.005Z,22.18
2024-01-01T05:17:56.090Z,22.12
2024-01-01T05:28:01.497Z,22.12
2024-01-01T05:38:06.903Z,22.11
2024-01-01T05:48:21.844Z,22.12
2024-01-01T05:58:22.592Z,22.11
2024-01-01T06:08:27.542Z,22.12
2024-01-01T06:18:32.699Z,22.13
2024-01-01T06:28:38.273Z,22.12
2024-01-01T06:38:43.640Z,22.13
2024-01-01T06:48:48.803Z,22.12
2024-01-01T06:58:53.939Z,22.12
2024-01-01T07:08:59.191Z,22.09
2024-01-01T07:19:04.600Z,22.07
2024-01-01T07:29:10.142Z,22.07
2024-01-01T07:39:15.626Z,22.08
2024-01-01T07:49:20.797Z,22.10
2024-01-01T07:59:26.068Z,22.08
2024-01-01T08:09:31.248Z,22.09
2024-01-01T08:19:36.656Z,22.07
2024-01-01T08:29:41.914Z,22.08
2024-01-01T08:39:47.074Z,22.09
2024-01-01T08:49:52.077Z,22.08
2024-01-01T08:59:57.804Z,22.07
2024-01-01T09:10:03.059Z,22.06
2024-01-01T09:20:08.401Z,22.08
2024-01-01T09:30:13.498Z,22.07
2024-01-01T09:40:19.047Z,22.07
2024-01-01T09:50:25.795Z,22.08
2024-01-01T10:00:31.101Z,22.07
2024-01-01T10:10:36.212Z,22.07
2024-01-01T10:20:41.387Z,22.05
2024-01-01T10:30:47.047Z,22.04
2024-01-01T10:40:52.158Z,22.05
2024-01-01T10:50:57.530Z,22.06
2024-01-01T11:01:03.025Z,22.04
2024-01-01T11:11:08.345Z,22.04
2024-01-01T11:21:13.633Z,22.04
2024-01-01T11:31:18.854Z,22.03
2024-01-01T11:41:24.344Z,22.03
2024-01-01T11:51:29.840Z,22.00
2024-01-01T12:01:35.279Z,22.01
2024-01-01T12:11:40.375Z,22.01
2024-01-01T12:21:45.907Z,22.02
2024-01-01T12:31:51.818Z,21.99
2024-01-01T12:41:56.975Z,21.98
2024-01-01T12:52:02.201Z,21.98
2024-01-01T13:02:07.627Z,22.00
2024-01-01T13:12:15.116Z,22.00
2024-01-01T13:22:21.602Z,22.01
2024-01-01T13:32:26.828Z,22.01
2024-01-01T13:42:32.039Z,22.02
2024-01-01T13:52:37.397Z,22.01
2024-01-01T14:02:43.016Z,22.02
2024-01-01T14:12:48.497Z,22.11
2024-01-01T14:22:54.422Z,22.15
2024-01-01T14:33:00.055Z,22.19
2024-01-01T14:43:05.563Z,22.24
2024-01-01T14:53:11.591Z,22.26
2024-01-01T15:03:17.248Z,22.27
2024-01-01T15:13:22.729Z,22.27
2024-01-01T15:23:28.027Z,22.28
2024-01-01T15:33:33.711Z,22.38
2024-01-01T15:43:39.483Z,22.54
2024-01-01T15:53:44.771Z,22.58
2024-01-01T16:03:50.181Z,22.67
2024-01-01T16:13:55.983Z,22.70
2024-01-01T16:24:01.414Z,22.76
2024-01-01T16:34:06.576Z,22.78
2024-01-01T16:44:11.949Z,22.79
2024-01-01T16:54:17.274Z,22.86
2024-01-01T17:04:23.108Z,22.91
2024-01-01T17:14:28.610Z,22.95
2024-01-01T17:24:34.069Z,22.96
2024-01-01T17:34:39.638Z,23.00
2024-01-01T17:44:45.330Z,23.01
2024-01-01T17:54:50.263Z,23.06
2024-01-01T18:04:55.724Z,23.08
2024-01-01T18:15:01.054Z,23.09
2024-01-01T18:25:06.041Z,23.14
2024-01-01T18:35:11.485Z,23.15
2024-01-01T18:45:17.096Z,23.17
2024-01-01T18:55:22.519Z,23.15
2024-01-01T19:05:27.915Z,23.19
2024-01-01T19:15:33.425Z,23.18
2024-01-01T19:25:43.609Z,23.19
2024-01-01T19:35:49.214Z,23.18
2024-01-01T19:45:54.859Z,23.24
2024-01-01T19:56:00.298Z,23.22
2024-01-01T20:06:05.922Z,23.24
2024-01-01T20:16:11.067Z,23.18
2024-01-01T20:26:16.528Z,23.25
2024-01-01T20:36:21.989Z,23.27
2024-01-01T20:46:27.555Z,23.28
2024-01-01T20:56:32.952Z,23.29
2024-01-01T21:06:38.620Z,23.20
2024-01-01T21:16:43.844Z,23.20
2024-01-01T21:26:50.228Z,23.22
2024-01-01T21:36:56.926Z,23.21
2024-01-01T21:47:02.466Z,23.18
2024-01-01T21:57:07.648Z,23.18
2024-01-01T22:07:12.846Z,23.16
2024-01-01T22:17:18.497Z,23.15
2024-01-01T22:27:24.714Z,23.13
2024-01-01T22:37:30.046Z,23.13
2024-01-01T22:47:35.051Z,23.16
2024-01-01T22:57:40.511Z,23.14
2024-01-01T23:07:45.131Z,23.16
2024-01-01T23:17:50.815Z,23.19
2024-01-01T23:27:56.357Z,23.23
2024-01-01T23:38:01.731Z,23.17
2024-01-01T23:48:07.381Z,23.15
2024-01-01T23:58:12.861Z,23.12
